sensor_id;sensor_type;location;lat;lon;timestamp;P1;durP1;ratioP1;P2;durP2;ratioP2
39792;SDS011;26080;42.264;24.536;2022-11-20T00:02:24;4.07;;;1.95;;
39792;SDS011;26080;42.264;24.536;2022-11-20T00:04:49;7.13;;;1.88;;
39792;SDS011;26080;42.264;24.536;2022-11-20T00:07:14;5.60;;;2.15;;
39792;SDS011;26080;42.264;24.536;2022-11-20T00:09:40;3.75;;;1.27;;
39792;SDS011;26080;42.264;24.536;2022-11-20T00:12:05;3.92;;;1.60;;
39792;SDS011;26080;42.264;24.536;2022-11-20T00:14:31;1.75;;;1.55;;
39792;SDS011;26080;42.264;24.536;2022-11-20T00:16:56;2.10;;;0.93;;
39792;SDS011;26080;42.264;24.536;2022-11-20T00:19:21;1.23;;;1.02;;
39792;SDS011;26080;42.264;24.536;2022-11-20T00:21:47;1.80;;;1.70;;
39792;SDS011;26080;42.264;24.536;2022-11-20T00:24:12;3.58;;;1.80;;
39792;SDS011;26080;42.264;24.536;2022-11-20T00:26:38;4.32;;;1.65;;
39792;SDS011;26080;42.264;24.536;2022-11-20T00:29:03;3.92;;;1.85;;
39792;SDS011;26080;42.264;24.536;2022-11-20T00:31:29;3.08;;;2.00;;
39792;SDS011;26080;42.264;24.536;2022-11-20T00:33:55;1.38;;;1.27;;
39792;SDS011;26080;42.264;24.536;2022-11-20T00:36:22;0.55;;;0.55;;
39792;SDS011;26080;42.264;24.536;2022-11-20T00:38:53;1.08;;;1.02;;
39792;SDS011;26080;42.264;24.536;2022-11-20T00:41:20;1.95;;;1.42;;
39792;SDS011;26080;42.264;24.536;2022-11-20T00:43:46;1.20;;;0.95;;
39792;SDS011;26080;42.264;24.536;2022-11-20T00:46:12;6.55;;;1.83;;
39792;SDS011;26080;42.264;24.536;2022-11-20T00:48:39;11.55;;;2.15;;
39792;SDS011;26080;42.264;24.536;2022-11-20T00:51:05;3.38;;;2.08;;
39792;SDS011;26080;42.264;24.536;2022-11-20T00:53:31;1.70;;;1.27;;
39792;SDS011;26080;42.264;24.536;2022-11-20T00:56:00;2.15;;;1.85;;
39792;SDS011;26080;42.264;24.536;2022-11-20T00:58:31;6.57;;;2.20;;
39792;SDS011;26080;42.264;24.536;2022-11-20T01:01:11;2.75;;;1.63;;
39792;SDS011;26080;42.264;24.536;2022-11-20T01:03:40;4.35;;;3.00;;
39792;SDS011;26080;42.264;24.536;2022-11-20T01:06:09;1.55;;;1.45;;
39792;SDS011;26080;42.264;24.536;2022-11-20T01:08:36;1.73;;;1.27;;
39792;SDS011;26080;42.264;24.536;2022-11-20T01:11:13;1.77;;;1.48;;
39792;SDS011;26080;42.264;24.536;2022-11-20T01:13:45;1.23;;;1.00;;
39792;SDS011;26080;42.264;24.536;2022-11-20T01:18:39;1.38;;;1.00;;
39792;SDS011;26080;42.264;24.536;2022-11-20T01:21:16;3.92;;;1.60;;
39792;SDS011;26080;42.264;24.536;2022-11-20T01:23:44;10.40;;;2.22;;
39792;SDS011;26080;42.264;24.536;2022-11-20T01:26:11;0.90;;;0.80;;
39792;SDS011;26080;42.264;24.536;2022-11-20T01:28:39;2.08;;;0.93;;
39792;SDS011;26080;42.264;24.536;2022-11-20T01:33:45;1.88;;;1.50;;
39792;SDS011;26080;42.264;24.536;2022-11-20T01:36:15;1.67;;;1.48;;
39792;SDS011;26080;42.264;24.536;2022-11-20T01:38:42;1.90;;;1.73;;
39792;SDS011;26080;42.264;24.536;2022-11-20T01:41:08;2.05;;;1.27;;
39792;SDS011;26080;42.264;24.536;2022-11-20T01:43:34;2.15;;;1.58;;
39792;SDS011;26080;42.264;24.536;2022-11-20T01:46:12;0.95;;;0.73;;
39792;SDS011;26080;42.264;24.536;2022-11-20T01:54:04;1.77;;;1.48;;
39792;SDS011;26080;42.264;24.536;2022-11-20T01:56:36;3.97;;;1.92;;
39792;SDS011;26080;42.264;24.536;2022-11-20T01:59:04;2.47;;;1.45;;
39792;SDS011;26080;42.264;24.536;2022-11-20T02:01:32;2.10;;;1.75;;
39792;SDS011;26080;42.264;24.536;2022-11-20T02:03:58;2.33;;;2.05;;
39792;SDS011;26080;42.264;24.536;2022-11-20T02:06:29;1.40;;;1.30;;
39792;SDS011;26080;42.264;24.536;2022-11-20T02:09:01;1.95;;;1.83;;
39792;SDS011;26080;42.264;24.536;2022-11-20T02:11:26;5.40;;;1.67;;
39792;SDS011;26080;42.264;24.536;2022-11-20T02:13:52;5.25;;;3.63;;
39792;SDS011;26080;42.264;24.536;2022-11-20T02:16:20;4.82;;;2.65;;
39792;SDS011;26080;42.264;24.536;2022-11-20T02:18:48;4.32;;;1.45;;
39792;SDS011;26080;42.264;24.536;2022-11-20T02:21:17;2.67;;;1.98;;
39792;SDS011;26080;42.264;24.536;2022-11-20T02:26:31;5.57;;;2.10;;
39792;SDS011;26080;42.264;24.536;2022-11-20T02:29:16;4.78;;;3.08;;
39792;SDS011;26080;42.264;24.536;2022-11-20T02:31:48;2.95;;;1.60;;
39792;SDS011;26080;42.264;24.536;2022-11-20T02:34:13;2.80;;;1.98;;
39792;SDS011;26080;42.264;24.536;2022-11-20T02:36:39;2.20;;;0.93;;
39792;SDS011;26080;42.264;24.536;2022-11-20T02:39:07;3.65;;;1.70;;
39792;SDS011;26080;42.264;24.536;2022-11-20T02:41:35;4.72;;;2.08;;
39792;SDS011;26080;42.264;24.536;2022-11-20T02:44:02;4.72;;;1.75;;
39792;SDS011;26080;42.264;24.536;2022-11-20T02:46:29;3.15;;;1.88;;
39792;SDS011;26080;42.264;24.536;2022-11-20T02:48:55;2.20;;;1.02;;
39792;SDS011;26080;42.264;24.536;2022-11-20T02:51:20;7.72;;;3.08;;
39792;SDS011;26080;42.264;24.536;2022-11-20T02:53:46;0.43;;;0.43;;
39792;SDS011;26080;42.264;24.536;2022-11-20T02:56:12;6.82;;;2.00;;
39792;SDS011;26080;42.264;24.536;2022-11-20T02:58:37;2.75;;;2.22;;
39792;SDS011;26080;42.264;24.536;2022-11-20T03:01:03;1.17;;;1.00;;
39792;SDS011;26080;42.264;24.536;2022-11-20T03:03:29;2.65;;;1.45;;
39792;SDS011;26080;42.264;24.536;2022-11-20T03:05:54;13.50;;;1.42;;
39792;SDS011;26080;42.264;24.536;2022-11-20T03:08:19;1.40;;;1.23;;
39792;SDS011;26080;42.264;24.536;2022-11-20T03:10:45;2.28;;;1.33;;
39792;SDS011;26080;42.264;24.536;2022-11-20T03:13:10;0.73;;;0.73;;
39792;SDS011;26080;42.264;24.536;2022-11-20T03:15:36;4.03;;;1.30;;
39792;SDS011;26080;42.264;24.536;2022-11-20T03:18:02;1.52;;;1.20;;
39792;SDS011;26080;42.264;24.536;2022-11-20T03:20:28;2.70;;;1.48;;
39792;SDS011;26080;42.264;24.536;2022-11-20T03:22:54;1.20;;;1.05;;
39792;SDS011;26080;42.264;24.536;2022-11-20T03:25:20;2.80;;;1.65;;
39792;SDS011;26080;42.264;24.536;2022-11-20T03:27:46;1.70;;;1.10;;
39792;SDS011;26080;42.264;24.536;2022-11-20T03:30:11;2.58;;;1.85;;
39792;SDS011;26080;42.264;24.536;2022-11-20T03:32:37;0.98;;;0.85;;
39792;SDS011;26080;42.264;24.536;2022-11-20T03:35:02;5.00;;;2.38;;
39792;SDS011;26080;42.264;24.536;2022-11-20T03:37:28;1.45;;;1.33;;
39792;SDS011;26080;42.264;24.536;2022-11-20T03:39:54;2.05;;;1.38;;
39792;SDS011;26080;42.264;24.536;2022-11-20T03:42:19;1.65;;;1.45;;
39792;SDS011;26080;42.264;24.536;2022-11-20T03:45:03;7.03;;;4.15;;
39792;SDS011;26080;42.264;24.536;2022-11-20T03:47:29;4.43;;;1.80;;
39792;SDS011;26080;42.264;24.536;2022-11-20T03:49:54;5.72;;;2.25;;
39792;SDS011;26080;42.264;24.536;2022-11-20T03:52:20;6.18;;;2.03;;
39792;SDS011;26080;42.264;24.536;2022-11-20T03:54:45;2.47;;;1.75;;
39792;SDS011;26080;42.264;24.536;2022-11-20T03:57:11;1.17;;;0.82;;
39792;SDS011;26080;42.264;24.536;2022-11-20T03:59:36;8.63;;;3.53;;
39792;SDS011;26080;42.264;24.536;2022-11-20T04:02:02;1.58;;;1.35;;
39792;SDS011;26080;42.264;24.536;2022-11-20T04:04:27;2.40;;;1.15;;
39792;SDS011;26080;42.264;24.536;2022-11-20T04:06:53;1.63;;;1.27;;
39792;SDS011;26080;42.264;24.536;2022-11-20T04:09:18;0.70;;;0.50;;
39792;SDS011;26080;42.264;24.536;2022-11-20T04:11:44;1.00;;;0.88;;
39792;SDS011;26080;42.264;24.536;2022-11-20T04:14:15;2.28;;;1.33;;
39792;SDS011;26080;42.264;24.536;2022-11-20T04:16:41;3.72;;;1.85;;
39792;SDS011;26080;42.264;24.536;2022-11-20T04:19:11;1.55;;;1.08;;
39792;SDS011;26080;42.264;24.536;2022-11-20T04:21:38;4.15;;;1.55;;
39792;SDS011;26080;42.264;24.536;2022-11-20T04:24:04;1.23;;;0.98;;
39792;SDS011;26080;42.264;24.536;2022-11-20T04:26:31;1.05;;;0.50;;
39792;SDS011;26080;42.264;24.536;2022-11-20T04:28:57;0.73;;;0.63;;
39792;SDS011;26080;42.264;24.536;2022-11-20T04:31:24;2.40;;;1.55;;
39792;SDS011;26080;42.264;24.536;2022-11-20T04:33:51;7.20;;;2.72;;
39792;SDS011;26080;42.264;24.536;2022-11-20T04:36:26;8.23;;;2.22;;
39792;SDS011;26080;42.264;24.536;2022-11-20T04:38:54;0.65;;;0.57;;
39792;SDS011;26080;42.264;24.536;2022-11-20T04:41:21;5.00;;;2.28;;
39792;SDS011;26080;42.264;24.536;2022-11-20T04:43:48;1.48;;;1.38;;
39792;SDS011;26080;42.264;24.536;2022-11-20T04:46:15;1.25;;;0.85;;
39792;SDS011;26080;42.264;24.536;2022-11-20T04:48:41;1.17;;;1.02;;
39792;SDS011;26080;42.264;24.536;2022-11-20T04:51:06;7.43;;;2.00;;
39792;SDS011;26080;42.264;24.536;2022-11-20T04:53:32;2.35;;;1.42;;
39792;SDS011;26080;42.264;24.536;2022-11-20T04:56:00;1.67;;;0.93;;
39792;SDS011;26080;42.264;24.536;2022-11-20T04:58:27;1.95;;;1.20;;
39792;SDS011;26080;42.264;24.536;2022-11-20T05:00:53;0.28;;;0.28;;
39792;SDS011;26080;42.264;24.536;2022-11-20T05:03:18;2.28;;;1.05;;
39792;SDS011;26080;42.264;24.536;2022-11-20T05:05:44;1.65;;;1.42;;
39792;SDS011;26080;42.264;24.536;2022-11-20T05:08:09;1.30;;;1.20;;
39792;SDS011;26080;42.264;24.536;2022-11-20T05:10:35;11.23;;;2.75;;
39792;SDS011;26080;42.264;24.536;2022-11-20T05:13:00;13.15;;;2.65;;
39792;SDS011;26080;42.264;24.536;2022-11-20T05:15:25;3.20;;;2.45;;
39792;SDS011;26080;42.264;24.536;2022-11-20T05:17:51;1.92;;;1.48;;
39792;SDS011;26080;42.264;24.536;2022-11-20T05:20:17;4.45;;;2.65;;
39792;SDS011;26080;42.264;24.536;2022-11-20T05:22:43;3.10;;;2.30;;
39792;SDS011;26080;42.264;24.536;2022-11-20T05:25:12;1.77;;;1.55;;
39792;SDS011;26080;42.264;24.536;2022-11-20T05:27:37;3.15;;;1.67;;
39792;SDS011;26080;42.264;24.536;2022-11-20T05:30:03;1.13;;;0.85;;
39792;SDS011;26080;42.264;24.536;2022-11-20T05:32:30;4.65;;;1.92;;
39792;SDS011;26080;42.264;24.536;2022-11-20T05:34:55;12.13;;;5.43;;
39792;SDS011;26080;42.264;24.536;2022-11-20T05:37:20;4.43;;;2.67;;
39792;SDS011;26080;42.264;24.536;2022-11-20T05:39:46;4.10;;;2.55;;
39792;SDS011;26080;42.264;24.536;2022-11-20T05:42:11;9.73;;;3.60;;
39792;SDS011;26080;42.264;24.536;2022-11-20T05:47:20;15.00;;;2.10;;
39792;SDS011;26080;42.264;24.536;2022-11-20T05:49:45;1.98;;;1.65;;
39792;SDS011;26080;42.264;24.536;2022-11-20T05:52:11;2.42;;;1.98;;
39792;SDS011;26080;42.264;24.536;2022-11-20T05:54:36;6.82;;;2.40;;
39792;SDS011;26080;42.264;24.536;2022-11-20T05:57:02;4.45;;;2.33;;
39792;SDS011;26080;42.264;24.536;2022-11-20T05:59:27;0.55;;;0.55;;
39792;SDS011;26080;42.264;24.536;2022-11-20T06:01:52;5.35;;;1.15;;
39792;SDS011;26080;42.264;24.536;2022-11-20T06:04:18;1.95;;;1.13;;
39792;SDS011;26080;42.264;24.536;2022-11-20T06:06:44;4.20;;;0.93;;
39792;SDS011;26080;42.264;24.536;2022-11-20T06:09:09;4.78;;;1.58;;
39792;SDS011;26080;42.264;24.536;2022-11-20T06:11:34;1.25;;;1.02;;
39792;SDS011;26080;42.264;24.536;2022-11-20T06:14:00;1.08;;;0.95;;
39792;SDS011;26080;42.264;24.536;2022-11-20T06:16:25;2.03;;;1.58;;
39792;SDS011;26080;42.264;24.536;2022-11-20T06:18:51;3.22;;;1.73;;
39792;SDS011;26080;42.264;24.536;2022-11-20T06:21:17;17.23;;;2.17;;
39792;SDS011;26080;42.264;24.536;2022-11-20T06:23:44;2.90;;;1.65;;
39792;SDS011;26080;42.264;24.536;2022-11-20T06:26:12;1.88;;;1.20;;
39792;SDS011;26080;42.264;24.536;2022-11-20T06:28:40;4.25;;;2.60;;
39792;SDS011;26080;42.264;24.536;2022-11-20T06:31:05;2.33;;;1.58;;
39792;SDS011;26080;42.264;24.536;2022-11-20T06:33:32;4.65;;;2.13;;
39792;SDS011;26080;42.264;24.536;2022-11-20T06:35:58;2.92;;;1.73;;
39792;SDS011;26080;42.264;24.536;2022-11-20T06:38:25;8.30;;;2.90;;
39792;SDS011;26080;42.264;24.536;2022-11-20T06:40:52;11.35;;;3.85;;
39792;SDS011;26080;42.264;24.536;2022-11-20T06:43:18;3.33;;;2.70;;
39792;SDS011;26080;42.264;24.536;2022-11-20T06:45:43;14.63;;;4.07;;
39792;SDS011;26080;42.264;24.536;2022-11-20T06:48:09;8.43;;;2.60;;
39792;SDS011;26080;42.264;24.536;2022-11-20T06:50:36;6.05;;;3.13;;
39792;SDS011;26080;42.264;24.536;2022-11-20T06:53:02;4.82;;;1.98;;
39792;SDS011;26080;42.264;24.536;2022-11-20T06:55:28;7.70;;;2.70;;
39792;SDS011;26080;42.264;24.536;2022-11-20T06:57:54;3.45;;;2.17;;
39792;SDS011;26080;42.264;24.536;2022-11-20T07:00:19;2.53;;;2.15;;
39792;SDS011;26080;42.264;24.536;2022-11-20T07:02:45;3.53;;;1.63;;
39792;SDS011;26080;42.264;24.536;2022-11-20T07:05:10;6.40;;;2.15;;
39792;SDS011;26080;42.264;24.536;2022-11-20T07:07:36;3.45;;;2.28;;
39792;SDS011;26080;42.264;24.536;2022-11-20T07:10:01;1.63;;;1.33;;
39792;SDS011;26080;42.264;24.536;2022-11-20T07:12:27;3.25;;;1.52;;
39792;SDS011;26080;42.264;24.536;2022-11-20T07:14:52;1.23;;;1.13;;
39792;SDS011;26080;42.264;24.536;2022-11-20T07:17:17;0.98;;;0.82;;
39792;SDS011;26080;42.264;24.536;2022-11-20T07:19:43;1.05;;;0.70;;
39792;SDS011;26080;42.264;24.536;2022-11-20T07:22:08;1.65;;;1.55;;
39792;SDS011;26080;42.264;24.536;2022-11-20T07:24:34;1.33;;;1.23;;
39792;SDS011;26080;42.264;24.536;2022-11-20T07:26:59;6.80;;;1.55;;
39792;SDS011;26080;42.264;24.536;2022-11-20T07:29:25;7.07;;;1.70;;
39792;SDS011;26080;42.264;24.536;2022-11-20T07:31:51;1.77;;;1.40;;
39792;SDS011;26080;42.264;24.536;2022-11-20T07:34:16;2.83;;;2.30;;
39792;SDS011;26080;42.264;24.536;2022-11-20T07:36:41;12.82;;;2.80;;
39792;SDS011;26080;42.264;24.536;2022-11-20T07:39:07;3.97;;;3.15;;
39792;SDS011;26080;42.264;24.536;2022-11-20T07:41:32;4.72;;;2.00;;
39792;SDS011;26080;42.264;24.536;2022-11-20T07:43:58;5.43;;;1.30;;
39792;SDS011;26080;42.264;24.536;2022-11-20T07:46:23;1.83;;;1.63;;
39792;SDS011;26080;42.264;24.536;2022-11-20T07:48:49;4.20;;;3.15;;
39792;SDS011;26080;42.264;24.536;2022-11-20T07:51:14;7.68;;;2.95;;
39792;SDS011;26080;42.264;24.536;2022-11-20T07:53:39;1.80;;;1.58;;
39792;SDS011;26080;42.264;24.536;2022-11-20T07:56:05;2.33;;;1.55;;
39792;SDS011;26080;42.264;24.536;2022-11-20T07:58:31;3.42;;;1.67;;
39792;SDS011;26080;42.264;24.536;2022-11-20T08:01:01;3.38;;;2.47;;
39792;SDS011;26080;42.264;24.536;2022-11-20T08:03:33;7.07;;;1.85;;
39792;SDS011;26080;42.264;24.536;2022-11-20T08:05:59;1.63;;;1.52;;
39792;SDS011;26080;42.264;24.536;2022-11-20T08:08:28;2.42;;;1.38;;
39792;SDS011;26080;42.264;24.536;2022-11-20T08:10:53;3.47;;;1.35;;
39792;SDS011;26080;42.264;24.536;2022-11-20T08:13:39;2.75;;;1.52;;
39792;SDS011;26080;42.264;24.536;2022-11-20T08:16:23;2.80;;;0.95;;
39792;SDS011;26080;42.264;24.536;2022-11-20T08:18:48;15.60;;;4.03;;
39792;SDS011;26080;42.264;24.536;2022-11-20T08:21:14;6.93;;;3.55;;
39792;SDS011;26080;42.264;24.536;2022-11-20T08:23:40;5.53;;;2.25;;
39792;SDS011;26080;42.264;24.536;2022-11-20T08:26:05;3.65;;;1.80;;
39792;SDS011;26080;42.264;24.536;2022-11-20T08:28:30;6.50;;;2.35;;
39792;SDS011;26080;42.264;24.536;2022-11-20T08:30:59;2.20;;;1.85;;
39792;SDS011;26080;42.264;24.536;2022-11-20T08:33:25;2.38;;;0.90;;
39792;SDS011;26080;42.264;24.536;2022-11-20T08:35:51;2.33;;;1.30;;
39792;SDS011;26080;42.264;24.536;2022-11-20T08:38:17;8.77;;;1.98;;
39792;SDS011;26080;42.264;24.536;2022-11-20T08:40:42;4.72;;;1.38;;
39792;SDS011;26080;42.264;24.536;2022-11-20T08:43:31;1.10;;;0.80;;
39792;SDS011;26080;42.264;24.536;2022-11-20T08:45:57;1.25;;;1.10;;
39792;SDS011;26080;42.264;24.536;2022-11-20T08:48:22;3.25;;;1.85;;
39792;SDS011;26080;42.264;24.536;2022-11-20T08:50:48;1.15;;;0.73;;
39792;SDS011;26080;42.264;24.536;2022-11-20T08:53:13;0.50;;;0.43;;
39792;SDS011;26080;42.264;24.536;2022-11-20T08:55:38;0.52;;;0.52;;
39792;SDS011;26080;42.264;24.536;2022-11-20T08:58:06;2.92;;;1.05;;
39792;SDS011;26080;42.264;24.536;2022-11-20T09:00:32;0.93;;;0.70;;
39792;SDS011;26080;42.264;24.536;2022-11-20T09:02:58;2.15;;;1.15;;
39792;SDS011;26080;42.264;24.536;2022-11-20T09:05:25;1.75;;;1.33;;
39792;SDS011;26080;42.264;24.536;2022-11-20T09:07:51;0.88;;;0.77;;
39792;SDS011;26080;42.264;24.536;2022-11-20T09:10:16;4.68;;;0.77;;
39792;SDS011;26080;42.264;24.536;2022-11-20T09:12:42;0.47;;;0.45;;
39792;SDS011;26080;42.264;24.536;2022-11-20T09:15:07;12.18;;;1.63;;
39792;SDS011;26080;42.264;24.536;2022-11-20T09:17:33;8.93;;;0.98;;
39792;SDS011;26080;42.264;24.536;2022-11-20T09:19:58;3.42;;;1.52;;
39792;SDS011;26080;42.264;24.536;2022-11-20T09:22:24;7.10;;;0.93;;
39792;SDS011;26080;42.264;24.536;2022-11-20T09:24:49;1.27;;;1.15;;
39792;SDS011;26080;42.264;24.536;2022-11-20T09:27:15;10.95;;;1.20;;
39792;SDS011;26080;42.264;24.536;2022-11-20T09:29:45;0.85;;;0.70;;
39792;SDS011;26080;42.264;24.536;2022-11-20T09:32:11;3.60;;;1.17;;
39792;SDS011;26080;42.264;24.536;2022-11-20T09:34:36;3.60;;;0.55;;
39792;SDS011;26080;42.264;24.536;2022-11-20T09:37:01;3.92;;;1.48;;
39792;SDS011;26080;42.264;24.536;2022-11-20T09:39:27;0.90;;;0.75;;
39792;SDS011;26080;42.264;24.536;2022-11-20T09:41:59;0.63;;;0.57;;
39792;SDS011;26080;42.264;24.536;2022-11-20T09:44:48;0.57;;;0.57;;
39792;SDS011;26080;42.264;24.536;2022-11-20T09:55:34;0.68;;;0.68;;
39792;SDS011;26080;42.264;24.536;2022-11-20T09:58:02;1.30;;;0.95;;
39792;SDS011;26080;42.264;24.536;2022-11-20T10:00:31;2.75;;;0.93;;
39792;SDS011;26080;42.264;24.536;2022-11-20T10:03:01;0.50;;;0.30;;
39792;SDS011;26080;42.264;24.536;2022-11-20T10:05:38;0.50;;;0.50;;
39792;SDS011;26080;42.264;24.536;2022-11-20T10:10:45;0.50;;;0.50;;
39792;SDS011;26080;42.264;24.536;2022-11-20T10:21:30;1.88;;;1.27;;
39792;SDS011;26080;42.264;24.536;2022-11-20T10:24:11;1.25;;;1.15;;
39792;SDS011;26080;42.264;24.536;2022-11-20T10:29:33;1.02;;;0.75;;
39792;SDS011;26080;42.264;24.536;2022-11-20T10:32:01;0.88;;;0.82;;
39792;SDS011;26080;42.264;24.536;2022-11-20T10:36:56;2.50;;;1.30;;
39792;SDS011;26080;42.264;24.536;2022-11-20T10:50:32;0.82;;;0.50;;
39792;SDS011;26080;42.264;24.536;2022-11-20T11:01:13;3.95;;;1.70;;
39792;SDS011;26080;42.264;24.536;2022-11-20T11:03:40;1.35;;;1.15;;
39792;SDS011;26080;42.264;24.536;2022-11-20T11:06:10;1.45;;;1.00;;
39792;SDS011;26080;42.264;24.536;2022-11-20T11:08:44;1.35;;;1.25;;
39792;SDS011;26080;42.264;24.536;2022-11-20T11:13:46;2.25;;;1.88;;
39792;SDS011;26080;42.264;24.536;2022-11-20T11:16:25;1.10;;;1.05;;
39792;SDS011;26080;42.264;24.536;2022-11-20T11:18:51;1.42;;;0.80;;
39792;SDS011;26080;42.264;24.536;2022-11-20T11:21:28;5.18;;;1.13;;
39792;SDS011;26080;42.264;24.536;2022-11-20T11:23:58;3.50;;;1.20;;
39792;SDS011;26080;42.264;24.536;2022-11-20T11:26:25;1.23;;;0.80;;
39792;SDS011;26080;42.264;24.536;2022-11-20T11:28:59;4.45;;;1.33;;
39792;SDS011;26080;42.264;24.536;2022-11-20T11:31:27;3.25;;;1.90;;
39792;SDS011;26080;42.264;24.536;2022-11-20T11:36:39;4.45;;;2.30;;
39792;SDS011;26080;42.264;24.536;2022-11-20T11:39:06;1.60;;;1.35;;
39792;SDS011;26080;42.264;24.536;2022-11-20T11:41:39;6.32;;;2.25;;
39792;SDS011;26080;42.264;24.536;2022-11-20T11:44:21;2.38;;;2.08;;
39792;SDS011;26080;42.264;24.536;2022-11-20T11:47:18;12.15;;;1.60;;
39792;SDS011;26080;42.264;24.536;2022-11-20T11:49:49;9.02;;;3.72;;
39792;SDS011;26080;42.264;24.536;2022-11-20T11:52:25;2.72;;;1.13;;
39792;SDS011;26080;42.264;24.536;2022-11-20T11:57:26;2.05;;;1.40;;
39792;SDS011;26080;42.264;24.536;2022-11-20T12:10:23;1.63;;;1.27;;
39792;SDS011;26080;42.264;24.536;2022-11-20T12:13:04;3.95;;;1.45;;
39792;SDS011;26080;42.264;24.536;2022-11-20T12:15:56;1.45;;;1.17;;
39792;SDS011;26080;42.264;24.536;2022-11-20T12:18:21;4.88;;;2.03;;
39792;SDS011;26080;42.264;24.536;2022-11-20T12:23:28;2.42;;;1.75;;
39792;SDS011;26080;42.264;24.536;2022-11-20T12:39:49;5.00;;;2.17;;
39792;SDS011;26080;42.264;24.536;2022-11-20T12:48:36;3.92;;;1.45;;
39792;SDS011;26080;42.264;24.536;2022-11-20T12:56:57;1.23;;;1.05;;
39792;SDS011;26080;42.264;24.536;2022-11-20T13:05:09;6.05;;;1.98;;
39792;SDS011;26080;42.264;24.536;2022-11-20T13:07:58;5.97;;;2.17;;
39792;SDS011;26080;42.264;24.536;2022-11-20T13:10:33;16.90;;;2.85;;
39792;SDS011;26080;42.264;24.536;2022-11-20T13:13:15;37.95;;;3.92;;
39792;SDS011;26080;42.264;24.536;2022-11-20T13:15:51;2.63;;;1.77;;
39792;SDS011;26080;42.264;24.536;2022-11-20T13:18:19;5.90;;;3.33;;
39792;SDS011;26080;42.264;24.536;2022-11-20T13:20:45;2.10;;;1.90;;
39792;SDS011;26080;42.264;24.536;2022-11-20T13:23:22;3.78;;;2.00;;
39792;SDS011;26080;42.264;24.536;2022-11-20T13:25:49;7.80;;;4.35;;
39792;SDS011;26080;42.264;24.536;2022-11-20T13:30:53;1.75;;;1.65;;
39792;SDS011;26080;42.264;24.536;2022-11-20T13:33:33;1.02;;;0.90;;
39792;SDS011;26080;42.264;24.536;2022-11-20T13:38:27;3.08;;;1.50;;
39792;SDS011;26080;42.264;24.536;2022-11-20T13:41:07;1.05;;;0.95;;
39792;SDS011;26080;42.264;24.536;2022-11-20T13:43:52;4.78;;;0.77;;
39792;SDS011;26080;42.264;24.536;2022-11-20T13:46:17;0.55;;;0.55;;
39792;SDS011;26080;42.264;24.536;2022-11-20T13:48:49;2.75;;;1.02;;
39792;SDS011;26080;42.264;24.536;2022-11-20T13:54:15;0.20;;;0.20;;
39792;SDS011;26080;42.264;24.536;2022-11-20T14:00:21;15.70;;;2.90;;
39792;SDS011;26080;42.264;24.536;2022-11-20T14:03:30;0.20;;;0.20;;
39792;SDS011;26080;42.264;24.536;2022-11-20T14:05:40;0.75;;;0.35;;
39792;SDS011;26080;42.264;24.536;2022-11-20T14:08:28;0.20;;;0.20;;
39792;SDS011;26080;42.264;24.536;2022-11-20T14:11:05;12.68;;;0.55;;
39792;SDS011;26080;42.264;24.536;2022-11-20T14:13:55;2.97;;;1.67;;
39792;SDS011;26080;42.264;24.536;2022-11-20T14:16:24;0.10;;;0.10;;
39792;SDS011;26080;42.264;24.536;2022-11-20T14:18:51;3.65;;;2.25;;
39792;SDS011;26080;42.264;24.536;2022-11-20T14:21:35;16.92;;;5.75;;
39792;SDS011;26080;42.264;24.536;2022-11-20T14:26:30;4.45;;;2.38;;
39792;SDS011;26080;42.264;24.536;2022-11-20T14:28:56;4.88;;;2.25;;
39792;SDS011;26080;42.264;24.536;2022-11-20T14:31:25;3.00;;;1.30;;
39792;SDS011;26080;42.264;24.536;2022-11-20T14:33:53;2.38;;;1.52;;
39792;SDS011;26080;42.264;24.536;2022-11-20T14:36:22;3.78;;;2.30;;
39792;SDS011;26080;42.264;24.536;2022-11-20T14:38:51;6.28;;;2.22;;
39792;SDS011;26080;42.264;24.536;2022-11-20T14:41:21;0.63;;;0.63;;
39792;SDS011;26080;42.264;24.536;2022-11-20T14:43:53;8.32;;;3.67;;
39792;SDS011;26080;42.264;24.536;2022-11-20T14:46:21;7.30;;;2.83;;
39792;SDS011;26080;42.264;24.536;2022-11-20T14:48:49;2.55;;;1.63;;
39792;SDS011;26080;42.264;24.536;2022-11-20T14:51:23;1.65;;;0.88;;
39792;SDS011;26080;42.264;24.536;2022-11-20T14:53:53;1.85;;;1.15;;
39792;SDS011;26080;42.264;24.536;2022-11-20T14:56:22;5.47;;;2.25;;
39792;SDS011;26080;42.264;24.536;2022-11-20T14:58:56;4.93;;;2.40;;
39792;SDS011;26080;42.264;24.536;2022-11-20T15:03:58;19.75;;;8.48;;
39792;SDS011;26080;42.264;24.536;2022-11-20T15:06:26;14.68;;;7.18;;
39792;SDS011;26080;42.264;24.536;2022-11-20T15:08:52;17.63;;;4.22;;
39792;SDS011;26080;42.264;24.536;2022-11-20T15:11:18;22.45;;;9.48;;
39792;SDS011;26080;42.264;24.536;2022-11-20T15:13:48;3.45;;;1.77;;
39792;SDS011;26080;42.264;24.536;2022-11-20T15:16:17;1.52;;;1.42;;
39792;SDS011;26080;42.264;24.536;2022-11-20T15:18:48;4.97;;;3.70;;
39792;SDS011;26080;42.264;24.536;2022-11-20T15:21:14;8.13;;;4.22;;
39792;SDS011;26080;42.264;24.536;2022-11-20T15:23:41;6.20;;;2.50;;
39792;SDS011;26080;42.264;24.536;2022-11-20T15:26:08;1.02;;;0.60;;
39792;SDS011;26080;42.264;24.536;2022-11-20T15:28:53;0.90;;;0.50;;
39792;SDS011;26080;42.264;24.536;2022-11-20T15:31:20;0.40;;;0.40;;
39792;SDS011;26080;42.264;24.536;2022-11-20T15:33:47;2.53;;;0.85;;
39792;SDS011;26080;42.264;24.536;2022-11-20T15:36:13;9.60;;;6.13;;
39792;SDS011;26080;42.264;24.536;2022-11-20T15:38:39;53.85;;;25.17;;
39792;SDS011;26080;42.264;24.536;2022-11-20T15:41:05;35.38;;;18.65;;
39792;SDS011;26080;42.264;24.536;2022-11-20T15:43:31;17.30;;;9.02;;
39792;SDS011;26080;42.264;24.536;2022-11-20T15:45:58;10.23;;;6.03;;
39792;SDS011;26080;42.264;24.536;2022-11-20T15:53:39;10.15;;;6.13;;
39792;SDS011;26080;42.264;24.536;2022-11-20T15:56:07;10.80;;;5.72;;
39792;SDS011;26080;42.264;24.536;2022-11-20T15:58:38;29.20;;;10.48;;
39792;SDS011;26080;42.264;24.536;2022-11-20T16:01:04;6.55;;;3.63;;
39792;SDS011;26080;42.264;24.536;2022-11-20T16:03:30;3.47;;;2.13;;
39792;SDS011;26080;42.264;24.536;2022-11-20T16:05:55;2.25;;;1.27;;
39792;SDS011;26080;42.264;24.536;2022-11-20T16:08:21;1.77;;;1.38;;
39792;SDS011;26080;42.264;24.536;2022-11-20T16:10:46;0.65;;;0.52;;
39792;SDS011;26080;42.264;24.536;2022-11-20T16:13:15;3.72;;;2.22;;
39792;SDS011;26080;42.264;24.536;2022-11-20T16:16:02;6.07;;;4.18;;
39792;SDS011;26080;42.264;24.536;2022-11-20T16:18:30;15.95;;;4.80;;
39792;SDS011;26080;42.264;24.536;2022-11-20T16:20:56;3.97;;;2.15;;
39792;SDS011;26080;42.264;24.536;2022-11-20T16:23:22;3.25;;;1.58;;
39792;SDS011;26080;42.264;24.536;2022-11-20T16:25:48;5.57;;;2.95;;
39792;SDS011;26080;42.264;24.536;2022-11-20T16:28:15;3.60;;;2.65;;
39792;SDS011;26080;42.264;24.536;2022-11-20T16:30:41;5.70;;;3.67;;
39792;SDS011;26080;42.264;24.536;2022-11-20T16:33:10;1.92;;;1.05;;
39792;SDS011;26080;42.264;24.536;2022-11-20T16:35:37;1.05;;;0.60;;
39792;SDS011;26080;42.264;24.536;2022-11-20T16:38:02;2.25;;;0.98;;
39792;SDS011;26080;42.264;24.536;2022-11-20T16:40:28;0.85;;;0.73;;
39792;SDS011;26080;42.264;24.536;2022-11-20T16:42:53;3.30;;;1.95;;
39792;SDS011;26080;42.264;24.536;2022-11-20T16:45:19;1.08;;;0.73;;
39792;SDS011;26080;42.264;24.536;2022-11-20T16:47:44;0.30;;;0.30;;
39792;SDS011;26080;42.264;24.536;2022-11-20T16:50:10;1.27;;;0.75;;
39792;SDS011;26080;42.264;24.536;2022-11-20T16:52:36;1.02;;;0.85;;
39792;SDS011;26080;42.264;24.536;2022-11-20T16:55:02;7.50;;;3.00;;